Roque Bluffs, Maine
Current Conditions -  °F | °C
As of 5:35 AM on Friday 24 Oct 2014 (Local Time) from KBHB Reporting Station
Overcast Overcast  
Wind Chill: 50°   Ceiling: 1100
Heat Index: 50°   Visibility: 10mi
Dew Point: 50°   Wind: 10mph
Humidity: 100%   Direction: 20°NNE
Pressure: 29.63"   Gusts: 18mph
Location:  44.8808°N, 67.668°W
Report Text: KBHB 240935Z AUTO 02009G16KT 10SM OVC011 10/10 A2963 RMK AO1
Loading
Personal Weather Stations






























Interactive Weather Map New forecast layout! Learn more

10-Day Weather Forecast

Advertisements
Track Severe Weather on mobile